sensor_id;sensor_type;location;lat;lon;timestamp;P1;durP1;ratioP1;P2;durP2;ratioP2
6513;SDS011;3290;47.716;9.070;2022-09-03T00:01:02;9.43;;;5.63;;
6513;SDS011;3290;47.716;9.070;2022-09-03T00:03:36;7.40;;;6.20;;
6513;SDS011;3290;47.716;9.070;2022-09-03T00:06:41;10.03;;;6.33;;
6513;SDS011;3290;47.716;9.070;2022-09-03T00:12:07;6.90;;;5.67;;
6513;SDS011;3290;47.716;9.070;2022-09-03T00:14:37;11.23;;;6.70;;
6513;SDS011;3290;47.716;9.070;2022-09-03T00:17:10;10.10;;;6.23;;
6513;SDS011;3290;47.716;9.070;2022-09-03T00:19:42;10.03;;;7.03;;
6513;SDS011;3290;47.716;9.070;2022-09-03T00:22:16;9.20;;;6.40;;
6513;SDS011;3290;47.716;9.070;2022-09-03T00:24:45;7.63;;;6.67;;
6513;SDS011;3290;47.716;9.070;2022-09-03T00:27:15;8.73;;;5.50;;
6513;SDS011;3290;47.716;9.070;2022-09-03T00:29:47;8.53;;;6.40;;
6513;SDS011;3290;47.716;9.070;2022-09-03T00:32:20;8.87;;;5.27;;
6513;SDS011;3290;47.716;9.070;2022-09-03T00:34:54;5.97;;;5.20;;
6513;SDS011;3290;47.716;9.070;2022-09-03T00:37:24;7.37;;;5.93;;
6513;SDS011;3290;47.716;9.070;2022-09-03T00:39:53;6.83;;;5.63;;
6513;SDS011;3290;47.716;9.070;2022-09-03T00:59:37;7.67;;;6.53;;
6513;SDS011;3290;47.716;9.070;2022-09-03T01:05:12;13.00;;;7.20;;
6513;SDS011;3290;47.716;9.070;2022-09-03T01:13:42;9.80;;;6.73;;
6513;SDS011;3290;47.716;9.070;2022-09-03T01:29:30;9.77;;;6.40;;
6513;SDS011;3290;47.716;9.070;2022-09-03T01:32:06;7.87;;;6.17;;
6513;SDS011;3290;47.716;9.070;2022-09-03T01:45:46;8.10;;;5.10;;
6513;SDS011;3290;47.716;9.070;2022-09-03T01:59:26;6.27;;;4.60;;
6513;SDS011;3290;47.716;9.070;2022-09-03T02:05:08;8.83;;;4.83;;
6513;SDS011;3290;47.716;9.070;2022-09-03T02:07:41;9.83;;;5.53;;
6513;SDS011;3290;47.716;9.070;2022-09-03T02:10:13;8.80;;;5.73;;
6513;SDS011;3290;47.716;9.070;2022-09-03T02:12:53;13.37;;;5.73;;
6513;SDS011;3290;47.716;9.070;2022-09-03T02:15:24;8.57;;;6.20;;
6513;SDS011;3290;47.716;9.070;2022-09-03T02:17:51;10.20;;;6.33;;
6513;SDS011;3290;47.716;9.070;2022-09-03T02:20:21;9.07;;;6.50;;
6513;SDS011;3290;47.716;9.070;2022-09-03T02:22:50;9.00;;;5.50;;
6513;SDS011;3290;47.716;9.070;2022-09-03T02:25:18;5.83;;;5.33;;
6513;SDS011;3290;47.716;9.070;2022-09-03T02:27:47;5.77;;;5.07;;
6513;SDS011;3290;47.716;9.070;2022-09-03T02:30:13;5.60;;;4.70;;
6513;SDS011;3290;47.716;9.070;2022-09-03T02:32:39;9.33;;;5.90;;
6513;SDS011;3290;47.716;9.070;2022-09-03T02:35:05;6.13;;;5.00;;
6513;SDS011;3290;47.716;9.070;2022-09-03T02:37:31;8.70;;;5.20;;
6513;SDS011;3290;47.716;9.070;2022-09-03T02:39:56;5.97;;;5.37;;
6513;SDS011;3290;47.716;9.070;2022-09-03T02:42:21;7.70;;;5.00;;
6513;SDS011;3290;47.716;9.070;2022-09-03T02:44:47;9.80;;;5.50;;
6513;SDS011;3290;47.716;9.070;2022-09-03T02:47:18;8.03;;;4.80;;
6513;SDS011;3290;47.716;9.070;2022-09-03T02:49:46;5.70;;;4.90;;
6513;SDS011;3290;47.716;9.070;2022-09-03T02:52:13;6.53;;;5.27;;
6513;SDS011;3290;47.716;9.070;2022-09-03T02:54:38;5.87;;;5.10;;
6513;SDS011;3290;47.716;9.070;2022-09-03T02:57:07;9.23;;;4.83;;
6513;SDS011;3290;47.716;9.070;2022-09-03T02:59:35;8.83;;;4.80;;
6513;SDS011;3290;47.716;9.070;2022-09-03T03:02:01;8.57;;;4.80;;
6513;SDS011;3290;47.716;9.070;2022-09-03T03:04:28;8.83;;;4.87;;
6513;SDS011;3290;47.716;9.070;2022-09-03T03:06:54;7.40;;;5.40;;
6513;SDS011;3290;47.716;9.070;2022-09-03T03:09:20;5.80;;;5.07;;
6513;SDS011;3290;47.716;9.070;2022-09-03T03:11:45;7.37;;;5.73;;
6513;SDS011;3290;47.716;9.070;2022-09-03T03:14:11;7.80;;;5.90;;
6513;SDS011;3290;47.716;9.070;2022-09-03T03:16:36;6.07;;;5.17;;
6513;SDS011;3290;47.716;9.070;2022-09-03T03:19:02;6.43;;;4.67;;
6513;SDS011;3290;47.716;9.070;2022-09-03T03:21:27;7.47;;;5.40;;
6513;SDS011;3290;47.716;9.070;2022-09-03T03:23:53;9.83;;;5.30;;
6513;SDS011;3290;47.716;9.070;2022-09-03T03:26:19;7.40;;;5.90;;
6513;SDS011;3290;47.716;9.070;2022-09-03T03:28:47;6.97;;;5.30;;
6513;SDS011;3290;47.716;9.070;2022-09-03T03:31:22;10.27;;;5.27;;
6513;SDS011;3290;47.716;9.070;2022-09-03T03:33:51;7.80;;;4.97;;
6513;SDS011;3290;47.716;9.070;2022-09-03T03:36:18;6.70;;;5.97;;
6513;SDS011;3290;47.716;9.070;2022-09-03T03:38:44;6.30;;;5.70;;
6513;SDS011;3290;47.716;9.070;2022-09-03T03:43:36;9.23;;;6.00;;
6513;SDS011;3290;47.716;9.070;2022-09-03T03:46:03;6.87;;;5.33;;
6513;SDS011;3290;47.716;9.070;2022-09-03T03:48:29;8.37;;;6.40;;
6513;SDS011;3290;47.716;9.070;2022-09-03T03:50:58;7.60;;;5.17;;
6513;SDS011;3290;47.716;9.070;2022-09-03T03:53:25;7.60;;;5.63;;
6513;SDS011;3290;47.716;9.070;2022-09-03T03:55:54;9.70;;;5.47;;
6513;SDS011;3290;47.716;9.070;2022-09-03T03:58:21;7.53;;;5.87;;
6513;SDS011;3290;47.716;9.070;2022-09-03T04:00:47;5.27;;;4.67;;
6513;SDS011;3290;47.716;9.070;2022-09-03T04:03:13;7.40;;;5.73;;
6513;SDS011;3290;47.716;9.070;2022-09-03T04:05:38;5.60;;;4.87;;
6513;SDS011;3290;47.716;9.070;2022-09-03T04:08:04;8.43;;;5.73;;
6513;SDS011;3290;47.716;9.070;2022-09-03T04:10:29;10.90;;;5.40;;
6513;SDS011;3290;47.716;9.070;2022-09-03T04:12:55;9.70;;;4.50;;
6513;SDS011;3290;47.716;9.070;2022-09-03T04:15:20;4.90;;;4.40;;
6513;SDS011;3290;47.716;9.070;2022-09-03T04:17:46;5.67;;;4.67;;
6513;SDS011;3290;47.716;9.070;2022-09-03T04:20:11;8.37;;;5.50;;
6513;SDS011;3290;47.716;9.070;2022-09-03T04:22:37;7.57;;;4.93;;
6513;SDS011;3290;47.716;9.070;2022-09-03T04:25:02;8.67;;;5.10;;
6513;SDS011;3290;47.716;9.070;2022-09-03T04:27:28;6.13;;;5.10;;
6513;SDS011;3290;47.716;9.070;2022-09-03T04:29:53;11.10;;;4.60;;
6513;SDS011;3290;47.716;9.070;2022-09-03T04:32:18;5.80;;;4.63;;
6513;SDS011;3290;47.716;9.070;2022-09-03T04:35:02;6.33;;;5.17;;
6513;SDS011;3290;47.716;9.070;2022-09-03T04:37:28;7.47;;;5.10;;
6513;SDS011;3290;47.716;9.070;2022-09-03T04:39:53;4.97;;;4.47;;
6513;SDS011;3290;47.716;9.070;2022-09-03T04:42:19;4.80;;;4.30;;
6513;SDS011;3290;47.716;9.070;2022-09-03T04:44:44;7.37;;;5.80;;
6513;SDS011;3290;47.716;9.070;2022-09-03T04:47:09;8.57;;;5.60;;
6513;SDS011;3290;47.716;9.070;2022-09-03T04:49:35;6.63;;;5.37;;
6513;SDS011;3290;47.716;9.070;2022-09-03T04:52:01;7.10;;;5.30;;
6513;SDS011;3290;47.716;9.070;2022-09-03T04:54:27;6.80;;;5.07;;
6513;SDS011;3290;47.716;9.070;2022-09-03T04:56:52;6.30;;;5.20;;
6513;SDS011;3290;47.716;9.070;2022-09-03T04:59:18;5.87;;;4.73;;
6513;SDS011;3290;47.716;9.070;2022-09-03T05:01:43;6.40;;;5.37;;
6513;SDS011;3290;47.716;9.070;2022-09-03T05:04:08;13.00;;;5.17;;
6513;SDS011;3290;47.716;9.070;2022-09-03T05:06:34;6.47;;;5.60;;
6513;SDS011;3290;47.716;9.070;2022-09-03T05:09:01;7.07;;;5.70;;
6513;SDS011;3290;47.716;9.070;2022-09-03T05:11:27;7.17;;;5.50;;
6513;SDS011;3290;47.716;9.070;2022-09-03T05:13:54;10.10;;;6.17;;
6513;SDS011;3290;47.716;9.070;2022-09-03T05:16:21;11.13;;;6.13;;
6513;SDS011;3290;47.716;9.070;2022-09-03T05:18:51;6.83;;;6.07;;
6513;SDS011;3290;47.716;9.070;2022-09-03T05:21:18;7.57;;;5.40;;
6513;SDS011;3290;47.716;9.070;2022-09-03T05:23:45;8.07;;;6.07;;
6513;SDS011;3290;47.716;9.070;2022-09-03T05:26:13;6.97;;;5.90;;
6513;SDS011;3290;47.716;9.070;2022-09-03T05:28:41;8.90;;;5.67;;
6513;SDS011;3290;47.716;9.070;2022-09-03T05:33:35;6.20;;;5.60;;
6513;SDS011;3290;47.716;9.070;2022-09-03T05:36:03;14.07;;;6.10;;
6513;SDS011;3290;47.716;9.070;2022-09-03T05:38:30;10.27;;;6.10;;
6513;SDS011;3290;47.716;9.070;2022-09-03T05:40:59;11.30;;;5.77;;
6513;SDS011;3290;47.716;9.070;2022-09-03T05:43:28;7.20;;;5.63;;
6513;SDS011;3290;47.716;9.070;2022-09-03T05:45:58;6.50;;;5.90;;
6513;SDS011;3290;47.716;9.070;2022-09-03T05:48:28;7.33;;;5.60;;
6513;SDS011;3290;47.716;9.070;2022-09-03T05:51:00;9.60;;;6.43;;
6513;SDS011;3290;47.716;9.070;2022-09-03T05:53:32;13.13;;;6.77;;
6513;SDS011;3290;47.716;9.070;2022-09-03T05:56:00;8.80;;;6.60;;
6513;SDS011;3290;47.716;9.070;2022-09-03T05:58:30;16.30;;;6.83;;
6513;SDS011;3290;47.716;9.070;2022-09-03T06:00:59;6.60;;;5.73;;
6513;SDS011;3290;47.716;9.070;2022-09-03T06:03:33;5.93;;;5.33;;
6513;SDS011;3290;47.716;9.070;2022-09-03T06:05:59;6.13;;;5.20;;
6513;SDS011;3290;47.716;9.070;2022-09-03T06:08:24;6.10;;;4.73;;
6513;SDS011;3290;47.716;9.070;2022-09-03T06:10:50;6.67;;;5.97;;
6513;SDS011;3290;47.716;9.070;2022-09-03T06:13:22;9.87;;;6.30;;
6513;SDS011;3290;47.716;9.070;2022-09-03T06:15:48;11.00;;;6.20;;
6513;SDS011;3290;47.716;9.070;2022-09-03T06:18:13;7.03;;;5.00;;
6513;SDS011;3290;47.716;9.070;2022-09-03T06:20:38;8.20;;;4.90;;
6513;SDS011;3290;47.716;9.070;2022-09-03T06:23:04;10.57;;;5.73;;
6513;SDS011;3290;47.716;9.070;2022-09-03T06:25:29;7.23;;;5.00;;
6513;SDS011;3290;47.716;9.070;2022-09-03T06:27:55;7.90;;;5.60;;
6513;SDS011;3290;47.716;9.070;2022-09-03T06:30:21;9.73;;;5.70;;
6513;SDS011;3290;47.716;9.070;2022-09-03T06:32:48;10.23;;;5.30;;
6513;SDS011;3290;47.716;9.070;2022-09-03T06:35:14;9.80;;;5.70;;
6513;SDS011;3290;47.716;9.070;2022-09-03T06:37:40;10.50;;;5.40;;
6513;SDS011;3290;47.716;9.070;2022-09-03T06:40:07;6.40;;;5.80;;
6513;SDS011;3290;47.716;9.070;2022-09-03T06:42:40;9.10;;;5.50;;
6513;SDS011;3290;47.716;9.070;2022-09-03T06:45:09;6.70;;;5.97;;
6513;SDS011;3290;47.716;9.070;2022-09-03T06:47:35;13.83;;;5.47;;
6513;SDS011;3290;47.716;9.070;2022-09-03T06:50:00;7.83;;;4.90;;
6513;SDS011;3290;47.716;9.070;2022-09-03T06:52:29;5.20;;;4.50;;
6513;SDS011;3290;47.716;9.070;2022-09-03T06:54:55;6.63;;;4.70;;
6513;SDS011;3290;47.716;9.070;2022-09-03T06:57:20;7.20;;;4.63;;
6513;SDS011;3290;47.716;9.070;2022-09-03T06:59:45;6.60;;;5.90;;
6513;SDS011;3290;47.716;9.070;2022-09-03T07:02:11;5.13;;;4.63;;
6513;SDS011;3290;47.716;9.070;2022-09-03T07:04:37;8.10;;;4.43;;
6513;SDS011;3290;47.716;9.070;2022-09-03T07:07:02;3.73;;;3.43;;
6513;SDS011;3290;47.716;9.070;2022-09-03T07:09:28;6.77;;;3.50;;
6513;SDS011;3290;47.716;9.070;2022-09-03T07:11:53;4.57;;;3.30;;
6513;SDS011;3290;47.716;9.070;2022-09-03T07:14:19;4.57;;;3.67;;
6513;SDS011;3290;47.716;9.070;2022-09-03T07:16:45;5.10;;;3.47;;
6513;SDS011;3290;47.716;9.070;2022-09-03T07:19:12;3.03;;;2.60;;
6513;SDS011;3290;47.716;9.070;2022-09-03T07:21:38;4.03;;;2.53;;
6513;SDS011;3290;47.716;9.070;2022-09-03T07:24:07;2.83;;;2.17;;
6513;SDS011;3290;47.716;9.070;2022-09-03T07:26:34;3.23;;;1.63;;
6513;SDS011;3290;47.716;9.070;2022-09-03T07:29:02;2.10;;;1.90;;
6513;SDS011;3290;47.716;9.070;2022-09-03T07:31:30;2.83;;;1.83;;
6513;SDS011;3290;47.716;9.070;2022-09-03T07:33:58;2.63;;;2.20;;
6513;SDS011;3290;47.716;9.070;2022-09-03T07:36:26;2.17;;;1.97;;
6513;SDS011;3290;47.716;9.070;2022-09-03T07:38:54;2.00;;;1.90;;
6513;SDS011;3290;47.716;9.070;2022-09-03T07:41:21;3.13;;;2.30;;
6513;SDS011;3290;47.716;9.070;2022-09-03T07:43:47;2.50;;;1.90;;
6513;SDS011;3290;47.716;9.070;2022-09-03T07:46:19;4.27;;;2.30;;
6513;SDS011;3290;47.716;9.070;2022-09-03T07:48:56;2.20;;;2.00;;
6513;SDS011;3290;47.716;9.070;2022-09-03T07:51:24;4.07;;;2.10;;
6513;SDS011;3290;47.716;9.070;2022-09-03T07:53:53;2.50;;;2.07;;
6513;SDS011;3290;47.716;9.070;2022-09-03T07:56:20;2.50;;;2.10;;
6513;SDS011;3290;47.716;9.070;2022-09-03T07:58:46;2.60;;;2.17;;
6513;SDS011;3290;47.716;9.070;2022-09-03T08:01:12;4.03;;;2.77;;
6513;SDS011;3290;47.716;9.070;2022-09-03T08:03:42;2.30;;;1.90;;
6513;SDS011;3290;47.716;9.070;2022-09-03T08:06:08;2.30;;;2.10;;
6513;SDS011;3290;47.716;9.070;2022-09-03T08:08:35;3.00;;;2.27;;
6513;SDS011;3290;47.716;9.070;2022-09-03T08:11:08;2.37;;;1.90;;
6513;SDS011;3290;47.716;9.070;2022-09-03T08:13:44;2.90;;;1.90;;
6513;SDS011;3290;47.716;9.070;2022-09-03T08:16:21;2.13;;;2.00;;
6513;SDS011;3290;47.716;9.070;2022-09-03T08:18:46;2.20;;;2.00;;
6513;SDS011;3290;47.716;9.070;2022-09-03T08:21:15;2.70;;;2.23;;
6513;SDS011;3290;47.716;9.070;2022-09-03T08:23:43;3.37;;;2.37;;
6513;SDS011;3290;47.716;9.070;2022-09-03T08:26:10;2.40;;;2.20;;
6513;SDS011;3290;47.716;9.070;2022-09-03T08:28:37;6.53;;;2.43;;
6513;SDS011;3290;47.716;9.070;2022-09-03T08:31:06;2.47;;;2.10;;
6513;SDS011;3290;47.716;9.070;2022-09-03T08:33:46;2.87;;;2.30;;
6513;SDS011;3290;47.716;9.070;2022-09-03T08:36:14;7.40;;;5.13;;
6513;SDS011;3290;47.716;9.070;2022-09-03T08:38:41;4.73;;;2.37;;
6513;SDS011;3290;47.716;9.070;2022-09-03T08:41:13;2.90;;;2.03;;
6513;SDS011;3290;47.716;9.070;2022-09-03T08:44:03;2.57;;;2.13;;
6513;SDS011;3290;47.716;9.070;2022-09-03T08:55:03;2.00;;;1.80;;
6513;SDS011;3290;47.716;9.070;2022-09-03T08:57:41;5.13;;;2.50;;
6513;SDS011;3290;47.716;9.070;2022-09-03T09:00:11;2.23;;;2.07;;
6513;SDS011;3290;47.716;9.070;2022-09-03T09:02:40;3.67;;;1.80;;
6513;SDS011;3290;47.716;9.070;2022-09-03T09:05:18;2.77;;;2.30;;
6513;SDS011;3290;47.716;9.070;2022-09-03T09:07:52;2.33;;;2.13;;
6513;SDS011;3290;47.716;9.070;2022-09-03T09:10:26;3.97;;;2.23;;
6513;SDS011;3290;47.716;9.070;2022-09-03T09:21:12;8.47;;;2.87;;
6513;SDS011;3290;47.716;9.070;2022-09-03T09:23:46;2.60;;;2.37;;
6513;SDS011;3290;47.716;9.070;2022-09-03T09:26:14;2.47;;;2.27;;
6513;SDS011;3290;47.716;9.070;2022-09-03T09:28:42;2.63;;;2.43;;
6513;SDS011;3290;47.716;9.070;2022-09-03T09:31:11;2.63;;;2.43;;
6513;SDS011;3290;47.716;9.070;2022-09-03T09:33:43;4.07;;;2.47;;
6513;SDS011;3290;47.716;9.070;2022-09-03T09:36:10;2.87;;;2.20;;
6513;SDS011;3290;47.716;9.070;2022-09-03T09:38:41;3.03;;;2.73;;
6513;SDS011;3290;47.716;9.070;2022-09-03T09:41:09;3.30;;;2.67;;
6513;SDS011;3290;47.716;9.070;2022-09-03T09:43:34;2.70;;;2.50;;
6513;SDS011;3290;47.716;9.070;2022-09-03T09:46:05;2.80;;;2.60;;
6513;SDS011;3290;47.716;9.070;2022-09-03T09:49:00;5.00;;;2.30;;
6513;SDS011;3290;47.716;9.070;2022-09-03T09:54:29;3.50;;;2.70;;
6513;SDS011;3290;47.716;9.070;2022-09-03T09:56:59;2.40;;;2.20;;
6513;SDS011;3290;47.716;9.070;2022-09-03T09:59:45;3.00;;;2.63;;
6513;SDS011;3290;47.716;9.070;2022-09-03T10:02:11;2.80;;;2.40;;
6513;SDS011;3290;47.716;9.070;2022-09-03T10:04:40;3.30;;;2.53;;
6513;SDS011;3290;47.716;9.070;2022-09-03T10:12:32;3.37;;;2.97;;
6513;SDS011;3290;47.716;9.070;2022-09-03T10:15:14;2.97;;;2.67;;
6513;SDS011;3290;47.716;9.070;2022-09-03T10:17:55;3.17;;;2.60;;
6513;SDS011;3290;47.716;9.070;2022-09-03T10:20:57;6.90;;;4.57;;
6513;SDS011;3290;47.716;9.070;2022-09-03T10:26:47;4.53;;;3.77;;
6513;SDS011;3290;47.716;9.070;2022-09-03T10:29:16;5.40;;;4.10;;
6513;SDS011;3290;47.716;9.070;2022-09-03T10:34:47;7.27;;;4.00;;
6513;SDS011;3290;47.716;9.070;2022-09-03T10:37:42;7.20;;;4.10;;
6513;SDS011;3290;47.716;9.070;2022-09-03T10:56:29;4.13;;;3.23;;
6513;SDS011;3290;47.716;9.070;2022-09-03T11:01:47;2.90;;;2.60;;
6513;SDS011;3290;47.716;9.070;2022-09-03T11:07:04;2.87;;;2.50;;
6513;SDS011;3290;47.716;9.070;2022-09-03T11:12:21;2.67;;;2.47;;
6513;SDS011;3290;47.716;9.070;2022-09-03T11:14:52;3.00;;;2.33;;
6513;SDS011;3290;47.716;9.070;2022-09-03T11:17:25;2.60;;;2.40;;
6513;SDS011;3290;47.716;9.070;2022-09-03T11:22:59;2.37;;;2.17;;
6513;SDS011;3290;47.716;9.070;2022-09-03T11:25:30;2.27;;;2.07;;
6513;SDS011;3290;47.716;9.070;2022-09-03T11:33:22;3.60;;;2.20;;
6513;SDS011;3290;47.716;9.070;2022-09-03T11:35:54;3.80;;;2.60;;
6513;SDS011;3290;47.716;9.070;2022-09-03T11:38:21;2.63;;;2.43;;
6513;SDS011;3290;47.716;9.070;2022-09-03T11:41:12;2.30;;;2.10;;
6513;SDS011;3290;47.716;9.070;2022-09-03T11:43:40;2.47;;;2.27;;
6513;SDS011;3290;47.716;9.070;2022-09-03T11:48:46;3.33;;;2.40;;
6513;SDS011;3290;47.716;9.070;2022-09-03T11:54:00;2.23;;;2.00;;
6513;SDS011;3290;47.716;9.070;2022-09-03T11:56:29;2.40;;;2.13;;
6513;SDS011;3290;47.716;9.070;2022-09-03T11:59:00;2.10;;;1.90;;
6513;SDS011;3290;47.716;9.070;2022-09-03T12:02:01;2.33;;;1.50;;
6513;SDS011;3290;47.716;9.070;2022-09-03T12:10:28;1.50;;;1.40;;
6513;SDS011;3290;47.716;9.070;2022-09-03T12:16:03;2.13;;;1.40;;
6513;SDS011;3290;47.716;9.070;2022-09-03T12:18:32;1.23;;;1.10;;
6513;SDS011;3290;47.716;9.070;2022-09-03T12:21:01;1.57;;;1.47;;
6513;SDS011;3290;47.716;9.070;2022-09-03T12:23:33;1.40;;;1.27;;
6513;SDS011;3290;47.716;9.070;2022-09-03T12:26:11;2.40;;;2.20;;
6513;SDS011;3290;47.716;9.070;2022-09-03T12:28:39;1.73;;;1.50;;
6513;SDS011;3290;47.716;9.070;2022-09-03T12:31:07;2.17;;;1.50;;
6513;SDS011;3290;47.716;9.070;2022-09-03T12:33:44;1.40;;;1.20;;
6513;SDS011;3290;47.716;9.070;2022-09-03T12:36:09;2.20;;;0.90;;
6513;SDS011;3290;47.716;9.070;2022-09-03T12:38:35;1.50;;;1.30;;
6513;SDS011;3290;47.716;9.070;2022-09-03T12:41:00;1.77;;;1.50;;
6513;SDS011;3290;47.716;9.070;2022-09-03T12:43:26;2.60;;;1.40;;
6513;SDS011;3290;47.716;9.070;2022-09-03T12:45:53;1.40;;;1.30;;
6513;SDS011;3290;47.716;9.070;2022-09-03T12:48:19;1.93;;;1.67;;
6513;SDS011;3290;47.716;9.070;2022-09-03T12:50:46;2.10;;;1.50;;
6513;SDS011;3290;47.716;9.070;2022-09-03T12:53:16;1.30;;;1.20;;
6513;SDS011;3290;47.716;9.070;2022-09-03T12:55:49;2.10;;;1.30;;
6513;SDS011;3290;47.716;9.070;2022-09-03T12:58:19;1.63;;;1.53;;
6513;SDS011;3290;47.716;9.070;2022-09-03T13:00:54;1.30;;;1.20;;
6513;SDS011;3290;47.716;9.070;2022-09-03T13:06:06;1.57;;;1.47;;
6513;SDS011;3290;47.716;9.070;2022-09-03T13:08:40;1.47;;;1.20;;
6513;SDS011;3290;47.716;9.070;2022-09-03T13:11:13;1.77;;;1.67;;
6513;SDS011;3290;47.716;9.070;2022-09-03T13:13:47;2.37;;;1.40;;
6513;SDS011;3290;47.716;9.070;2022-09-03T13:21:41;3.90;;;2.00;;
6513;SDS011;3290;47.716;9.070;2022-09-03T13:30:04;2.33;;;1.70;;
6513;SDS011;3290;47.716;9.070;2022-09-03T13:42:57;1.70;;;1.27;;
6513;SDS011;3290;47.716;9.070;2022-09-03T13:45:44;1.27;;;1.17;;
6513;SDS011;3290;47.716;9.070;2022-09-03T13:56:43;1.93;;;1.73;;
6513;SDS011;3290;47.716;9.070;2022-09-03T13:59:22;1.33;;;1.23;;
6513;SDS011;3290;47.716;9.070;2022-09-03T14:07:26;1.97;;;1.57;;
6513;SDS011;3290;47.716;9.070;2022-09-03T14:13:06;1.43;;;1.33;;
6513;SDS011;3290;47.716;9.070;2022-09-03T14:15:59;2.43;;;1.30;;
6513;SDS011;3290;47.716;9.070;2022-09-03T14:21:33;1.40;;;1.30;;
6513;SDS011;3290;47.716;9.070;2022-09-03T14:29:27;3.67;;;1.70;;
6513;SDS011;3290;47.716;9.070;2022-09-03T14:36:54;1.77;;;1.50;;
6513;SDS011;3290;47.716;9.070;2022-09-03T14:39:36;1.90;;;1.30;;
6513;SDS011;3290;47.716;9.070;2022-09-03T14:56:39;3.07;;;1.83;;
6513;SDS011;3290;47.716;9.070;2022-09-03T15:02:12;1.40;;;1.30;;
6513;SDS011;3290;47.716;9.070;2022-09-03T15:05:14;1.73;;;1.60;;
6513;SDS011;3290;47.716;9.070;2022-09-03T15:08:00;2.93;;;1.60;;
6513;SDS011;3290;47.716;9.070;2022-09-03T15:13:19;1.90;;;1.63;;
6513;SDS011;3290;47.716;9.070;2022-09-03T15:18:44;1.83;;;1.50;;
6513;SDS011;3290;47.716;9.070;2022-09-03T15:29:47;1.50;;;1.37;;
6513;SDS011;3290;47.716;9.070;2022-09-03T15:38:23;1.40;;;1.30;;
6513;SDS011;3290;47.716;9.070;2022-09-03T15:40:52;2.47;;;1.97;;
6513;SDS011;3290;47.716;9.070;2022-09-03T15:43:31;1.50;;;1.40;;
6513;SDS011;3290;47.716;9.070;2022-09-03T15:48:29;1.77;;;1.23;;
6513;SDS011;3290;47.716;9.070;2022-09-03T15:51:27;2.90;;;1.50;;
6513;SDS011;3290;47.716;9.070;2022-09-03T16:07:24;1.80;;;1.70;;
6513;SDS011;3290;47.716;9.070;2022-09-03T16:15:15;1.97;;;1.77;;
6513;SDS011;3290;47.716;9.070;2022-09-03T16:18:26;2.13;;;1.77;;
6513;SDS011;3290;47.716;9.070;2022-09-03T16:23:58;1.80;;;1.33;;
6513;SDS011;3290;47.716;9.070;2022-09-03T16:26:34;6.67;;;2.00;;
6513;SDS011;3290;47.716;9.070;2022-09-03T16:29:10;3.00;;;1.53;;
6513;SDS011;3290;47.716;9.070;2022-09-03T16:59:38;5.70;;;2.07;;
6513;SDS011;3290;47.716;9.070;2022-09-03T17:02:13;3.17;;;2.27;;
6513;SDS011;3290;47.716;9.070;2022-09-03T17:23:45;2.07;;;1.87;;
6513;SDS011;3290;47.716;9.070;2022-09-03T17:37:48;3.00;;;1.70;;
6513;SDS011;3290;47.716;9.070;2022-09-03T17:43:04;2.00;;;1.80;;
6513;SDS011;3290;47.716;9.070;2022-09-03T17:48:49;3.50;;;2.03;;
6513;SDS011;3290;47.716;9.070;2022-09-03T17:51:28;2.90;;;1.90;;
6513;SDS011;3290;47.716;9.070;2022-09-03T17:56:55;2.40;;;1.60;;
6513;SDS011;3290;47.716;9.070;2022-09-03T18:04:47;2.50;;;1.80;;
6513;SDS011;3290;47.716;9.070;2022-09-03T18:07:22;3.43;;;1.93;;
6513;SDS011;3290;47.716;9.070;2022-09-03T18:20:50;3.43;;;1.77;;
6513;SDS011;3290;47.716;9.070;2022-09-03T18:27:13;3.47;;;2.10;;
6513;SDS011;3290;47.716;9.070;2022-09-03T18:30:31;1.80;;;1.70;;
6513;SDS011;3290;47.716;9.070;2022-09-03T18:33:09;3.13;;;1.90;;
6513;SDS011;3290;47.716;9.070;2022-09-03T18:35:53;2.03;;;1.53;;
6513;SDS011;3290;47.716;9.070;2022-09-03T18:38:37;4.50;;;2.10;;
6513;SDS011;3290;47.716;9.070;2022-09-03T18:41:32;2.13;;;1.73;;
6513;SDS011;3290;47.716;9.070;2022-09-03T18:53:13;1.70;;;1.60;;
6513;SDS011;3290;47.716;9.070;2022-09-03T19:11:36;3.50;;;2.10;;
6513;SDS011;3290;47.716;9.070;2022-09-03T19:14:28;3.50;;;1.87;;
6513;SDS011;3290;47.716;9.070;2022-09-03T19:17:19;9.40;;;2.17;;
6513;SDS011;3290;47.716;9.070;2022-09-03T19:20:28;3.20;;;2.10;;
6513;SDS011;3290;47.716;9.070;2022-09-03T19:23:14;2.73;;;2.03;;
6513;SDS011;3290;47.716;9.070;2022-09-03T19:26:01;6.63;;;2.27;;
6513;SDS011;3290;47.716;9.070;2022-09-03T19:28:58;3.13;;;1.83;;
6513;SDS011;3290;47.716;9.070;2022-09-03T19:31:51;8.43;;;2.20;;
6513;SDS011;3290;47.716;9.070;2022-09-03T19:46:55;2.63;;;2.30;;
6513;SDS011;3290;47.716;9.070;2022-09-03T19:55:20;2.40;;;2.20;;
6513;SDS011;3290;47.716;9.070;2022-09-03T19:58:08;2.90;;;2.10;;
6513;SDS011;3290;47.716;9.070;2022-09-03T20:00:54;2.20;;;1.80;;
6513;SDS011;3290;47.716;9.070;2022-09-03T20:03:38;2.23;;;2.03;;
6513;SDS011;3290;47.716;9.070;2022-09-03T20:06:23;2.70;;;1.77;;
6513;SDS011;3290;47.716;9.070;2022-09-03T20:09:08;2.83;;;2.03;;
6513;SDS011;3290;47.716;9.070;2022-09-03T20:11:54;4.13;;;2.20;;
6513;SDS011;3290;47.716;9.070;2022-09-03T20:14:22;4.37;;;2.30;;
6513;SDS011;3290;47.716;9.070;2022-09-03T20:16:51;2.50;;;2.00;;
6513;SDS011;3290;47.716;9.070;2022-09-03T20:24:41;2.00;;;1.80;;
6513;SDS011;3290;47.716;9.070;2022-09-03T20:32:40;2.63;;;1.90;;
6513;SDS011;3290;47.716;9.070;2022-09-03T20:41:08;2.10;;;2.00;;
6513;SDS011;3290;47.716;9.070;2022-09-03T20:46:51;3.90;;;2.07;;
6513;SDS011;3290;47.716;9.070;2022-09-03T20:52:24;3.97;;;2.50;;
6513;SDS011;3290;47.716;9.070;2022-09-03T20:55:41;9.40;;;2.77;;
6513;SDS011;3290;47.716;9.070;2022-09-03T20:58:40;4.33;;;2.43;;
6513;SDS011;3290;47.716;9.070;2022-09-03T21:00:59;2.20;;;2.00;;
6513;SDS011;3290;47.716;9.070;2022-09-03T21:14:11;2.43;;;2.23;;
6513;SDS011;3290;47.716;9.070;2022-09-03T21:22:22;5.63;;;2.27;;
6513;SDS011;3290;47.716;9.070;2022-09-03T21:24:57;2.80;;;2.33;;
6513;SDS011;3290;47.716;9.070;2022-09-03T21:27:32;4.93;;;2.70;;
6513;SDS011;3290;47.716;9.070;2022-09-03T21:30:10;2.63;;;2.10;;
6513;SDS011;3290;47.716;9.070;2022-09-03T21:32:40;2.50;;;2.30;;
6513;SDS011;3290;47.716;9.070;2022-09-03T21:35:20;2.90;;;2.63;;
6513;SDS011;3290;47.716;9.070;2022-09-03T21:37:54;2.33;;;2.07;;
6513;SDS011;3290;47.716;9.070;2022-09-03T21:40:25;4.87;;;2.73;;
6513;SDS011;3290;47.716;9.070;2022-09-03T21:42:56;2.93;;;2.50;;
6513;SDS011;3290;47.716;9.070;2022-09-03T21:45:38;2.67;;;2.47;;
6513;SDS011;3290;47.716;9.070;2022-09-03T21:48:10;6.83;;;2.57;;
6513;SDS011;3290;47.716;9.070;2022-09-03T21:50:46;5.00;;;2.40;;
6513;SDS011;3290;47.716;9.070;2022-09-03T21:53:19;3.37;;;2.40;;
6513;SDS011;3290;47.716;9.070;2022-09-03T22:01:35;5.57;;;2.47;;
6513;SDS011;3290;47.716;9.070;2022-09-03T22:04:04;4.20;;;2.33;;
6513;SDS011;3290;47.716;9.070;2022-09-03T22:09:01;3.80;;;2.40;;
6513;SDS011;3290;47.716;9.070;2022-09-03T22:11:35;2.40;;;2.20;;
6513;SDS011;3290;47.716;9.070;2022-09-03T22:14:07;4.00;;;2.70;;
6513;SDS011;3290;47.716;9.070;2022-09-03T22:19:20;2.50;;;2.30;;
6513;SDS011;3290;47.716;9.070;2022-09-03T22:21:47;6.50;;;2.40;;
6513;SDS011;3290;47.716;9.070;2022-09-03T22:27:10;2.80;;;2.43;;
6513;SDS011;3290;47.716;9.070;2022-09-03T22:30:02;4.20;;;2.60;;
6513;SDS011;3290;47.716;9.070;2022-09-03T22:32:36;5.10;;;2.50;;
6513;SDS011;3290;47.716;9.070;2022-09-03T22:35:20;4.43;;;2.07;;
6513;SDS011;3290;47.716;9.070;2022-09-03T22:40:45;2.30;;;2.10;;
6513;SDS011;3290;47.716;9.070;2022-09-03T22:48:47;5.00;;;2.33;;
6513;SDS011;3290;47.716;9.070;2022-09-03T22:51:20;7.73;;;2.50;;
6513;SDS011;3290;47.716;9.070;2022-09-03T22:56:20;3.60;;;2.30;;
6513;SDS011;3290;47.716;9.070;2022-09-03T22:58:49;2.70;;;2.10;;
6513;SDS011;3290;47.716;9.070;2022-09-03T23:07:02;5.40;;;2.90;;
6513;SDS011;3290;47.716;9.070;2022-09-03T23:09:36;5.03;;;2.50;;
6513;SDS011;3290;47.716;9.070;2022-09-03T23:12:06;3.63;;;2.50;;
6513;SDS011;3290;47.716;9.070;2022-09-03T23:14:39;2.47;;;2.23;;
6513;SDS011;3290;47.716;9.070;2022-09-03T23:17:22;5.30;;;2.97;;
6513;SDS011;3290;47.716;9.070;2022-09-03T23:20:42;3.27;;;2.40;;
6513;SDS011;3290;47.716;9.070;2022-09-03T23:22:50;7.80;;;3.00;;
6513;SDS011;3290;47.716;9.070;2022-09-03T23:25:34;2.83;;;2.47;;
6513;SDS011;3290;47.716;9.070;2022-09-03T23:28:10;2.77;;;2.50;;
6513;SDS011;3290;47.716;9.070;2022-09-03T23:30:39;3.80;;;2.67;;
6513;SDS011;3290;47.716;9.070;2022-09-03T23:33:05;5.17;;;2.40;;